Time;durP1;ratioP1;P1;durP2;ratioP2;P2;SDS_P1;SDS_P2;PMS_P1;PMS_P2;Temp;Humidity;BMP_temperature;BMP_pressure;BME280_temperature;BME280_humidity;BME280_pressure;Samples;Min_cycle;Max_cycle;Signal;HPM_P1;HPM_P2
2024/02/18 00:03:45;;;;;;;10.43;3.22;;;14.30;99.90;;;;;;10546748;27;20469;-61
2024/02/18 00:08:47;;;;;;;9.13;2.83;;;15.10;99.90;;;;;;10552005;27;20047;-62
2024/02/18 00:13:51;;;;;;;11.80;3.60;;;15.20;99.90;;;;;;10554267;27;20071;-61
2024/02/18 00:18:53;;;;;;;7.97;4.03;;;14.20;99.90;;;;;;10550180;28;20465;-61
2024/02/18 00:23:56;;;;;;;11.55;4.63;;;13.80;99.90;;;;;;10558072;28;20051;-61
2024/02/18 00:29:00;;;;;;;8.38;3.95;;;12.80;99.90;;;;;;10556385;27;20044;-62
2024/02/18 00:34:02;;;;;;;9.85;4.30;;;12.90;99.90;;;;;;10568844;27;20109;-62
2024/02/18 00:39:04;;;;;;;10.77;5.17;;;12.50;99.90;;;;;;10562809;27;20046;-63
2024/02/18 00:44:07;;;;;;;9.57;3.60;;;12.40;99.90;;;;;;10560123;27;20071;-63
2024/02/18 00:49:09;;;;;;;8.40;3.20;;;12.70;99.90;;;;;;10562420;27;20217;-61
2024/02/18 00:54:11;;;;;;;5.07;2.83;;;13.00;99.90;;;;;;10561711;27;20077;-61
2024/02/18 00:59:15;;;;;;;7.10;3.00;;;13.00;99.90;;;;;;10565891;27;20047;-63
2024/02/18 01:04:17;;;;;;;5.22;2.83;;;13.30;99.90;;;;;;10561391;27;20058;-60
2024/02/18 01:09:19;;;;;;;7.20;2.93;;;12.60;99.90;;;;;;10560281;27;20060;-61
2024/02/18 01:14:23;;;;;;;7.30;3.20;;;12.30;99.90;;;;;;10567023;27;20402;-61
2024/02/18 01:19:25;;;;;;;13.18;4.05;;;12.20;99.90;;;;;;10558877;27;20052;-61
2024/02/18 01:24:27;;;;;;;7.13;3.07;;;12.50;99.90;;;;;;10558842;27;20047;-61
2024/02/18 01:29:30;;;;;;;6.80;3.30;;;13.20;99.90;;;;;;10557010;27;20158;-61
2024/02/18 01:34:32;;;;;;;6.38;2.50;;;12.60;99.90;;;;;;10551885;27;20058;-61
2024/02/18 01:39:36;;;;;;;7.70;2.20;;;12.70;99.90;;;;;;10553706;27;20082;-61
2024/02/18 01:44:39;;;;;;;7.97;2.45;;;12.70;99.90;;;;;;10554622;27;20806;-61
2024/02/18 01:49:41;;;;;;;10.05;2.58;;;13.30;99.90;;;;;;10551071;27;20072;-61
2024/02/18 01:54:45;;;;;;;6.33;2.40;;;13.30;99.90;;;;;;10551390;27;20426;-61
2024/02/18 01:59:49;;;;;;;12.13;3.40;;;13.80;99.90;;;;;;10550415;27;20117;-63
2024/02/18 02:04:52;;;;;;;8.95;1.88;;;14.70;99.90;;;;;;10552317;27;20176;-61
2024/02/18 02:09:54;;;;;;;6.32;2.22;;;14.10;99.90;;;;;;10557261;27;20043;-61
2024/02/18 02:14:58;;;;;;;5.73;2.00;;;14.30;99.90;;;;;;10551899;27;20047;-61
2024/02/18 02:20:00;;;;;;;7.95;3.20;;;13.90;99.90;;;;;;10561567;27;20134;-61
2024/02/18 02:25:03;;;;;;;9.35;2.13;;;13.60;99.90;;;;;;10558693;27;20059;-61
2024/02/18 02:30:09;;;;;;;9.55;1.80;;;13.60;99.90;;;;;;10550700;27;20044;-61
2024/02/18 02:35:10;;;;;;;13.65;1.98;;;14.60;99.90;;;;;;10557400;27;20060;-62
2024/02/18 02:40:14;;;;;;;5.67;1.97;;;14.90;99.90;;;;;;10553333;27;20055;-61
2024/02/18 02:45:17;;;;;;;10.00;1.58;;;14.70;99.90;;;;;;10559708;27;20055;-61
2024/02/18 02:50:19;;;;;;;4.97;1.60;;;15.10;99.90;;;;;;10557420;27;20059;-61
2024/02/18 02:55:22;;;;;;;10.07;1.60;;;14.90;99.90;;;;;;10563275;27;20083;-61
2024/02/18 03:00:25;;;;;;;;;;;14.70;99.90;;;;;;10561695;27;20059;-61
2024/02/18 03:05:27;;;;;;;3.28;1.52;;;14.80;99.90;;;;;;10560380;27;19927;-61
2024/02/18 03:10:29;;;;;;;4.93;1.50;;;14.50;99.90;;;;;;10556935;27;20050;-61
2024/02/18 03:15:33;;;;;;;4.60;1.40;;;14.70;99.90;;;;;;10562123;27;20476;-61
2024/02/18 03:20:35;;;;;;;3.88;1.52;;;14.90;99.90;;;;;;10564468;27;20491;-61
2024/02/18 03:25:38;;;;;;;9.30;1.30;;;15.40;99.90;;;;;;10564006;27;20063;-61
2024/02/18 03:30:41;;;;;;;13.57;2.33;;;15.60;99.90;;;;;;10562653;27;20043;-61
2024/02/18 03:35:43;;;;;;;8.95;2.47;;;15.20;99.90;;;;;;10560209;27;20770;-60
2024/02/18 03:40:46;;;;;;;7.07;1.93;;;14.80;99.90;;;;;;10560811;27;20058;-62
2024/02/18 03:45:49;;;;;;;;;;;15.20;99.90;;;;;;10553136;27;20109;-60
2024/02/18 03:50:51;;;;;;;;;;;15.90;99.90;;;;;;10561740;27;19930;-60
2024/02/18 03:55:53;;;;;;;11.98;2.45;;;14.90;99.90;;;;;;10549560;27;20730;-60
2024/02/18 04:00:57;;;;;;;3.87;1.50;;;15.40;99.90;;;;;;10562333;27;20050;-60
2024/02/18 04:15:32;;;;;;;8.25;2.65;;;15.60;99.90;;;;;;10494081;27;20717;-60
2024/02/18 04:20:34;;;;;;;7.70;2.47;;;15.10;99.90;;;;;;10507915;28;20050;-61
2024/02/18 04:25:36;;;;;;;9.47;3.00;;;15.90;99.90;;;;;;10503767;28;20053;-61
2024/02/18 04:30:40;;;;;;;12.50;3.00;;;15.30;99.90;;;;;;10513016;28;20117;-62
2024/02/18 04:35:42;;;;;;;10.50;2.00;;;14.90;99.90;;;;;;10510805;28;20098;-60
2024/02/18 04:40:44;;;;;;;7.17;2.77;;;15.00;99.90;;;;;;10504805;28;20492;-60
2024/02/18 04:45:48;;;;;;;5.90;3.05;;;14.60;99.90;;;;;;10503068;28;20154;-62
2024/02/18 04:50:50;;;;;;;8.40;2.38;;;14.80;99.90;;;;;;10498074;28;20110;-62
2024/02/18 04:55:52;;;;;;;6.05;2.45;;;15.50;99.90;;;;;;10509225;28;20059;-60
2024/02/18 05:00:55;;;;;;;13.07;3.27;;;15.40;99.90;;;;;;10508348;28;20149;-60
2024/02/18 05:05:58;;;;;;;11.65;3.35;;;15.10;99.90;;;;;;10503370;28;20477;-61
2024/02/18 05:11:00;;;;;;;7.87;2.90;;;14.90;99.90;;;;;;10505514;28;20056;-60
2024/02/18 05:16:04;;;;;;;7.88;2.83;;;14.60;99.90;;;;;;10500291;28;20481;-61
2024/02/18 05:21:06;;;;;;;9.48;4.15;;;14.50;99.90;;;;;;10506100;28;20047;-61
2024/02/18 05:26:10;;;;;;;;;;;14.50;99.90;;;;;;10473630;28;20605;-60
2024/02/18 05:31:23;;;;;;;7.88;2.83;;;14.40;99.90;;;;;;10478617;28;19928;-62
2024/02/18 05:36:25;;;;;;;12.25;3.25;;;14.80;99.90;;;;;;10464912;28;22593;-62
2024/02/18 05:41:27;;;;;;;8.00;2.57;;;14.50;99.90;;;;;;10484293;28;20857;-62
2024/02/18 05:46:31;;;;;;;9.10;3.43;;;15.10;99.90;;;;;;10474277;28;20044;-61
2024/02/18 05:51:32;;;;;;;10.20;3.00;;;14.50;99.90;;;;;;10475389;28;20092;-62
2024/02/18 05:56:35;;;;;;;11.73;3.08;;;14.00;99.90;;;;;;10480538;28;20067;-60
2024/02/18 06:01:41;;;;;;;9.63;3.70;;;14.10;99.90;;;;;;10476584;28;20048;-61
2024/02/18 06:06:43;;;;;;;15.48;3.65;;;14.00;99.90;;;;;;10475597;28;20534;-61
2024/02/18 06:11:45;;;;;;;7.80;2.90;;;14.00;99.90;;;;;;10481786;28;20060;-61
2024/02/18 06:16:48;;;;;;;8.87;3.40;;;14.80;99.90;;;;;;10476132;28;20392;-61
2024/02/18 06:21:51;;;;;;;16.80;2.92;;;13.70;99.90;;;;;;10467690;28;20079;-60
2024/02/18 06:26:53;;;;;;;;;;;13.80;99.90;;;;;;10475831;28;20055;-61
2024/02/18 06:31:57;;;;;;;6.53;2.47;;;14.40;99.90;;;;;;10480354;28;19966;-60
2024/02/18 06:36:58;;;;;;;8.93;2.90;;;15.30;99.90;;;;;;10467823;28;20064;-60
2024/02/18 06:42:00;;;;;;;5.90;3.00;;;14.10;99.90;;;;;;10481092;28;20721;-61
2024/02/18 06:47:04;;;;;;;9.47;2.97;;;14.50;99.90;;;;;;10470036;28;20087;-61
2024/02/18 06:52:06;;;;;;;6.38;2.80;;;14.20;99.90;;;;;;10482566;28;20713;-60
2024/02/18 06:57:08;;;;;;;8.40;2.63;;;14.70;99.90;;;;;;10477513;28;20056;-61
2024/02/18 07:02:12;;;;;;;0.55;0.55;;;14.10;99.90;;;;;;10469386;28;20045;-60
2024/02/18 07:07:15;;;;;;;0.52;0.52;;;13.50;99.90;;;;;;10470394;28;20052;-61
2024/02/18 07:12:16;;;;;;;0.10;0.10;;;15.20;99.90;;;;;;10474469;28;20048;-61
2024/02/18 07:17:20;;;;;;;0.10;0.10;;;14.50;99.90;;;;;;10477440;28;20090;-61
2024/02/18 07:22:23;;;;;;;0.17;0.17;;;15.20;99.90;;;;;;10477710;28;20052;-61
2024/02/18 07:27:25;;;;;;;0.10;0.10;;;14.50;99.90;;;;;;10471712;28;20067;-61
2024/02/18 07:32:29;;;;;;;0.10;0.10;;;15.60;99.90;;;;;;10472968;28;20059;-61
2024/02/18 07:37:31;;;;;;;0.40;0.40;;;15.30;99.90;;;;;;10454143;28;20080;-61
2024/02/18 07:42:33;;;;;;;0.10;0.10;;;15.00;99.90;;;;;;10467392;28;20049;-62
2024/02/18 07:47:37;;;;;;;0.10;0.10;;;13.80;99.90;;;;;;10464578;28;20053;-61
2024/02/18 07:52:39;;;;;;;0.32;0.32;;;14.00;99.90;;;;;;10473142;28;20127;-61
2024/02/18 07:57:41;;;;;;;6.72;1.98;;;13.30;99.90;;;;;;10475792;28;20072;-61
2024/02/18 08:02:44;;;;;;;0.15;0.15;;;13.60;99.90;;;;;;10473264;28;20056;-61
2024/02/18 08:07:47;;;;;;;0.10;0.10;;;12.30;99.90;;;;;;10472050;28;20044;-61
2024/02/18 08:12:49;;;;;;;0.10;0.10;;;12.80;99.90;;;;;;10464635;28;20452;-62
2024/02/18 08:17:52;;;;;;;0.10;0.10;;;13.10;99.90;;;;;;10462790;28;20419;-61
2024/02/18 08:22:54;;;;;;;0.10;0.10;;;14.60;99.90;;;;;;10464963;28;20051;-62
2024/02/18 08:27:56;;;;;;;0.10;0.10;;;14.50;99.90;;;;;;10466910;28;20052;-61
2024/02/18 08:33:00;;;;;;;0.10;0.10;;;14.80;99.90;;;;;;10459143;28;20850;-61
2024/02/18 08:38:02;;;;;;;0.10;0.10;;;15.20;99.90;;;;;;10457559;28;20190;-61
2024/02/18 08:43:04;;;;;;;0.25;0.25;;;15.00;99.90;;;;;;10459241;28;21337;-61
2024/02/18 08:48:08;;;;;;;0.10;0.10;;;14.40;99.90;;;;;;10457980;28;20044;-61
2024/02/18 08:53:10;;;;;;;0.00;0.00;;;14.80;99.90;;;;;;10461656;28;20056;-61
2024/02/18 08:58:13;;;;;;;0.20;0.20;;;15.00;99.90;;;;;;10459034;28;20203;-61
2024/02/18 09:03:16;;;;;;;;;;;14.20;99.90;;;;;;10463559;28;20080;-61
2024/02/18 09:08:18;;;;;;;;;;;13.50;99.90;;;;;;10466925;28;20518;-60
2024/02/18 09:13:20;;;;;;;0.10;0.10;;;13.70;99.90;;;;;;10462289;28;20298;-60
2024/02/18 09:18:23;;;;;;;0.10;0.10;;;14.80;99.90;;;;;;10467551;28;20059;-60
2024/02/18 09:23:25;;;;;;;0.30;0.30;;;15.20;99.90;;;;;;10463225;28;20420;-61
2024/02/18 09:28:27;;;;;;;0.10;0.10;;;13.30;99.90;;;;;;10463396;28;20105;-61
2024/02/18 09:33:31;;;;;;;0.07;0.07;;;13.60;99.90;;;;;;10462397;28;20776;-61
2024/02/18 09:38:33;;;;;;;0.10;0.10;;;14.70;99.90;;;;;;10469409;28;20044;-61
2024/02/18 09:43:41;;;;;;;0.10;0.10;;;14.40;99.90;;;;;;10475100;28;20048;-59
2024/02/18 09:48:44;;;;;;;0.28;0.17;;;14.60;99.90;;;;;;10464186;28;20044;-59
2024/02/18 09:53:47;;;;;;;0.10;0.10;;;13.20;99.90;;;;;;10467027;28;20089;-59
2024/02/18 09:58:49;;;;;;;;;;;13.70;99.90;;;;;;10468254;28;20463;-60
2024/02/18 10:03:53;;;;;;;0.55;0.55;;;13.00;99.90;;;;;;10468637;28;19928;-60
2024/02/18 10:08:57;;;;;;;0.98;0.82;;;12.40;99.90;;;;;;10456637;28;20523;-60
2024/02/18 10:13:59;;;;;;;0.10;0.10;;;12.00;99.90;;;;;;10458771;28;20048;-59
2024/02/18 10:19:03;;;;;;;0.17;0.17;;;12.90;99.90;;;;;;10465506;28;20106;-59
2024/02/18 10:24:05;;;;;;;0.73;0.73;;;12.20;99.90;;;;;;10461224;28;20152;-59
2024/02/18 10:29:09;;;;;;;0.10;0.10;;;11.90;99.90;;;;;;10460052;28;20603;-59
2024/02/18 10:34:13;;;;;;;0.20;0.20;;;12.70;99.90;;;;;;10463117;28;20036;-60
2024/02/18 10:39:17;;;;;;;0.15;0.15;;;13.00;99.90;;;;;;10458718;28;20166;-59
2024/02/18 10:44:19;;;;;;;0.10;0.10;;;13.10;99.90;;;;;;10463254;28;22893;-59
2024/02/18 10:49:30;;;;;;;0.10;0.10;;;11.80;99.90;;;;;;10459770;28;22685;-60
2024/02/18 10:54:41;;;;;;;0.20;0.20;;;12.80;99.90;;;;;;10461087;28;20102;-60
2024/02/18 10:59:51;;;;;;;0.10;0.10;;;13.40;99.90;;;;;;10456420;28;20044;-61
2024/02/18 11:04:55;;;;;;;0.10;0.10;;;12.80;99.90;;;;;;10452082;28;20055;-59
2024/02/18 11:09:59;;;;;;;0.10;0.10;;;12.90;99.90;;;;;;10459050;28;20071;-60
2024/02/18 11:15:02;;;;;;;0.10;0.10;;;13.00;99.90;;;;;;10455423;28;20052;-60
2024/02/18 11:20:09;;;;;;;0.22;0.22;;;12.90;99.90;;;;;;10458800;28;20047;-60
2024/02/18 11:25:12;;;;;;;0.20;0.20;;;13.10;99.90;;;;;;10450928;28;20048;-59
2024/02/18 11:30:14;;;;;;;;;;;13.00;99.90;;;;;;10460636;28;20048;-61
2024/02/18 11:35:18;;;;;;;0.10;0.10;;;13.00;99.90;;;;;;10467161;28;19924;-60
2024/02/18 11:40:20;;;;;;;0.10;0.10;;;13.30;99.90;;;;;;10455426;28;20166;-59
2024/02/18 11:45:24;;;;;;;0.20;0.20;;;12.80;99.90;;;;;;10455629;28;20045;-60
2024/02/18 11:50:27;;;;;;;0.10;0.10;;;12.60;99.90;;;;;;10456105;28;20060;-62
2024/02/18 11:55:29;;;;;;;0.10;0.10;;;12.50;99.90;;;;;;10460547;28;20614;-60
2024/02/18 12:00:31;;;;;;;1.30;1.23;;;11.90;99.90;;;;;;10456079;28;20051;-60
2024/02/18 12:05:35;;;;;;;0.10;0.10;;;11.30;99.90;;;;;;10458441;28;20105;-60
2024/02/18 12:10:38;;;;;;;1.10;0.80;;;11.40;99.90;;;;;;10455314;28;20057;-60
2024/02/18 12:15:43;;;;;;;0.10;0.10;;;12.00;99.90;;;;;;10462983;28;20647;-61
2024/02/18 12:20:50;;;;;;;0.10;0.10;;;11.50;99.90;;;;;;10457464;28;20234;-60
2024/02/18 12:25:53;;;;;;;0.13;0.13;;;11.80;99.90;;;;;;10459618;28;20527;-60
2024/02/18 12:30:55;;;;;;;;;;;10.90;99.90;;;;;;10463604;28;20052;-60
2024/02/18 12:35:59;;;;;;;0.20;0.20;;;11.30;99.90;;;;;;10466644;28;19927;-60
2024/02/18 12:41:01;;;;;;;4.25;1.17;;;10.60;99.90;;;;;;10454562;28;20135;-60
2024/02/18 12:46:04;;;;;;;0.10;0.10;;;11.00;99.90;;;;;;10459698;28;20052;-57
2024/02/18 12:51:11;;;;;;;0.10;0.10;;;10.20;99.90;;;;;;10460299;28;21085;-58
2024/02/18 12:56:16;;;;;;;0.10;0.10;;;10.70;99.90;;;;;;10467374;28;20040;-61
2024/02/18 13:01:19;;;;;;;0.10;0.10;;;10.50;99.90;;;;;;10459867;28;20495;-61
2024/02/18 13:06:22;;;;;;;0.20;0.20;;;10.40;99.90;;;;;;10468982;28;20060;-61
2024/02/18 13:11:25;;;;;;;0.10;0.10;;;10.40;99.90;;;;;;10463660;28;20072;-59
2024/02/18 13:16:27;;;;;;;0.20;0.20;;;10.60;99.90;;;;;;10470124;28;20784;-61
2024/02/18 13:21:32;;;;;;;0.10;0.10;;;10.80;99.90;;;;;;10471566;28;20818;-61
2024/02/18 13:26:34;;;;;;;0.10;0.10;;;10.80;99.90;;;;;;10473347;28;20052;-61
2024/02/18 13:31:36;;;;;;;0.10;0.10;;;10.80;99.90;;;;;;10467955;28;20369;-60
2024/02/18 13:36:40;;;;;;;0.10;0.10;;;10.90;99.90;;;;;;10469140;28;20108;-59
2024/02/18 13:41:42;;;;;;;0.13;0.13;;;10.80;99.90;;;;;;10464329;28;20047;-59
2024/02/18 13:46:45;;;;;;;0.10;0.10;;;10.60;99.90;;;;;;10468538;28;20041;-63
2024/02/18 13:51:50;;;;;;;0.28;0.25;;;10.60;99.90;;;;;;10469829;28;20495;-59
2024/02/18 13:56:52;;;;;;;0.30;0.30;;;10.50;99.90;;;;;;10465793;28;20066;-60
2024/02/18 14:01:54;;;;;;;0.20;0.20;;;10.40;99.90;;;;;;10474760;28;20065;-60
2024/02/18 14:06:57;;;;;;;0.22;0.22;;;10.60;99.90;;;;;;10476260;28;20068;-59
2024/02/18 14:11:59;;;;;;;0.00;0.00;;;10.30;99.90;;;;;;10474242;28;20323;-60
2024/02/18 14:17:02;;;;;;;0.65;0.65;;;10.40;99.90;;;;;;10468459;28;20048;-60
2024/02/18 14:22:05;;;;;;;0.53;0.53;;;10.60;99.90;;;;;;10477762;28;20053;-60
2024/02/18 14:27:08;;;;;;;0.20;0.20;;;10.50;99.90;;;;;;10465889;28;20041;-59
2024/02/18 14:32:10;;;;;;;0.10;0.10;;;10.70;99.90;;;;;;10459141;28;20059;-60
2024/02/18 14:37:13;;;;;;;0.10;0.10;;;10.60;99.90;;;;;;10469040;28;20163;-59
2024/02/18 14:42:15;;;;;;;7.78;0.88;;;10.80;99.90;;;;;;10473027;28;20068;-64
2024/02/18 14:47:17;;;;;;;0.52;0.52;;;10.30;99.90;;;;;;10470898;28;20037;-60
2024/02/18 14:52:21;;;;;;;0.15;0.15;;;10.60;99.90;;;;;;10475435;28;20128;-60
2024/02/18 14:57:23;;;;;;;0.10;0.10;;;10.30;99.90;;;;;;10473158;28;20423;-59
2024/02/18 15:02:25;;;;;;;0.10;0.10;;;10.60;99.90;;;;;;10468895;28;20845;-61
2024/02/18 15:07:28;;;;;;;0.20;0.20;;;10.60;99.90;;;;;;10461985;28;20085;-61
2024/02/18 15:12:30;;;;;;;0.10;0.10;;;10.50;99.90;;;;;;10469663;28;20091;-61
2024/02/18 15:17:32;;;;;;;4.03;2.80;;;10.70;99.90;;;;;;10465845;28;20621;-61
2024/02/18 15:22:36;;;;;;;0.10;0.10;;;10.70;99.90;;;;;;10452944;28;20055;-61
2024/02/18 15:27:38;;;;;;;0.22;0.22;;;10.60;99.90;;;;;;10464961;28;20091;-62
2024/02/18 15:32:41;;;;;;;0.32;0.32;;;10.60;99.90;;;;;;10461024;28;20071;-60
2024/02/18 15:37:44;;;;;;;4.40;0.77;;;10.40;99.90;;;;;;10453812;28;20040;-61
2024/02/18 15:42:46;;;;;;;0.20;0.20;;;10.30;99.90;;;;;;10459260;28;20708;-61
2024/02/18 15:47:48;;;;;;;0.10;0.10;;;10.30;99.90;;;;;;10456669;28;20056;-61
2024/02/18 15:52:52;;;;;;;0.10;0.10;;;10.70;99.90;;;;;;10458986;28;20052;-61
2024/02/18 15:57:55;;;;;;;0.63;0.63;;;10.90;99.90;;;;;;10455795;28;20064;-61
2024/02/18 16:02:57;;;;;;;0.10;0.10;;;10.50;99.90;;;;;;10459428;28;20064;-60
2024/02/18 16:08:01;;;;;;;0.20;0.20;;;10.40;99.90;;;;;;10451888;28;20056;-60
2024/02/18 16:13:04;;;;;;;0.20;0.20;;;10.60;99.90;;;;;;10461328;28;20060;-61
2024/02/18 16:18:06;;;;;;;0.10;0.10;;;10.30;99.90;;;;;;10465225;28;20114;-60
2024/02/18 16:23:10;;;;;;;0.73;0.73;;;10.50;99.90;;;;;;10465492;28;20048;-61
2024/02/18 16:28:12;;;;;;;0.10;0.10;;;10.60;99.90;;;;;;10466896;28;20149;-61
2024/02/18 16:33:14;;;;;;;1.70;1.60;;;10.20;99.90;;;;;;10467123;28;20052;-62
2024/02/18 16:38:18;;;;;;;0.30;0.30;;;10.00;99.90;;;;;;10466911;28;20055;-61
2024/02/18 16:43:20;;;;;;;0.10;0.10;;;10.20;99.90;;;;;;10462162;28;20554;-61
2024/02/18 16:48:23;;;;;;;5.80;1.07;;;10.10;99.90;;;;;;10468573;28;20049;-60
2024/02/18 16:53:26;;;;;;;0.10;0.10;;;10.10;99.90;;;;;;10458366;28;20152;-61
2024/02/18 16:58:28;;;;;;;0.10;0.10;;;9.80;99.90;;;;;;10451010;28;20079;-61
2024/02/18 17:03:30;;;;;;;0.20;0.20;;;9.60;99.90;;;;;;10454997;28;20225;-61
2024/02/18 17:08:34;;;;;;;0.10;0.10;;;9.80;99.90;;;;;;10459029;28;20090;-60
2024/02/18 17:13:36;;;;;;;0.17;0.17;;;9.80;99.90;;;;;;10452780;28;20040;-61
2024/02/18 17:18:39;;;;;;;0.85;0.85;;;9.80;99.90;;;;;;10456825;28;20048;-61
2024/02/18 17:23:42;;;;;;;0.10;0.10;;;9.80;99.90;;;;;;10467799;28;20043;-61
2024/02/18 17:28:45;;;;;;;0.10;0.10;;;10.20;99.90;;;;;;10463794;28;20091;-61
2024/02/18 17:33:47;;;;;;;0.13;0.13;;;10.10;99.90;;;;;;10472367;28;20059;-61
2024/02/18 17:38:51;;;;;;;0.30;0.30;;;10.00;99.90;;;;;;10462340;28;20052;-61
2024/02/18 17:43:53;;;;;;;0.10;0.10;;;9.90;99.90;;;;;;10460634;28;20903;-61
2024/02/18 17:48:55;;;;;;;0.57;0.57;;;10.30;99.90;;;;;;10459014;28;20190;-61
2024/02/18 17:53:58;;;;;;;0.10;0.10;;;10.00;99.90;;;;;;10462180;28;20058;-61
2024/02/18 17:59:00;;;;;;;0.10;0.10;;;10.20;99.90;;;;;;10458829;28;20059;-61
2024/02/18 18:04:02;;;;;;;0.10;0.10;;;10.10;99.90;;;;;;10467056;28;20130;-60
2024/02/18 18:09:06;;;;;;;0.25;0.25;;;10.30;99.90;;;;;;10463146;28;20052;-61
2024/02/18 18:14:08;;;;;;;0.15;0.15;;;10.40;99.90;;;;;;10454409;28;20052;-61
2024/02/18 18:19:11;;;;;;;0.15;0.15;;;10.40;99.90;;;;;;10459127;28;20047;-60
2024/02/18 18:24:15;;;;;;;1.45;1.00;;;10.00;99.90;;;;;;10468335;28;20052;-61
2024/02/18 18:29:18;;;;;;;0.10;0.10;;;9.90;99.90;;;;;;10474779;28;20055;-59
2024/02/18 18:34:20;;;;;;;0.20;0.20;;;9.80;99.90;;;;;;10465443;28;20078;-61
2024/02/18 18:39:23;;;;;;;0.10;0.10;;;9.30;99.90;;;;;;10457851;28;20879;-62
2024/02/18 18:44:26;;;;;;;0.80;0.80;;;9.40;99.90;;;;;;10464684;28;20087;-62
2024/02/18 18:49:28;;;;;;;0.45;0.45;;;9.50;99.90;;;;;;10456654;28;20074;-61
2024/02/18 18:54:34;;;;;;;0.10;0.10;;;9.20;99.90;;;;;;10466612;28;20078;-63
2024/02/18 18:59:36;;;;;;;0.30;0.30;;;9.30;99.90;;;;;;10461875;28;20139;-61
2024/02/18 19:04:39;;;;;;;0.57;0.57;;;9.20;99.90;;;;;;10460665;28;20206;-63
2024/02/18 19:09:42;;;;;;;0.20;0.20;;;9.20;99.90;;;;;;10456703;28;20477;-63
2024/02/18 19:14:45;;;;;;;0.20;0.20;;;9.20;99.90;;;;;;10456917;28;20168;-60
2024/02/18 19:19:47;;;;;;;2.30;1.27;;;9.10;99.90;;;;;;10465938;28;20063;-58
2024/02/18 19:24:52;;;;;;;0.38;0.38;;;9.00;99.90;;;;;;10468326;28;20116;-62
2024/02/18 19:29:54;;;;;;;0.10;0.10;;;9.10;99.90;;;;;;10466754;28;20114;-60
2024/02/18 19:34:56;;;;;;;0.63;0.63;;;9.20;99.90;;;;;;10471304;28;20051;-61
2024/02/18 19:40:00;;;;;;;0.32;0.32;;;9.60;99.90;;;;;;10472685;28;20121;-60
2024/02/18 19:45:04;;;;;;;0.10;0.10;;;9.80;99.90;;;;;;10468280;28;20051;-61
2024/02/18 19:50:09;;;;;;;1.77;1.27;;;9.50;99.90;;;;;;10463915;28;20057;-61
2024/02/18 19:55:12;;;;;;;0.20;0.20;;;10.10;99.90;;;;;;10462150;28;20901;-62
2024/02/18 20:00:14;;;;;;;0.10;0.10;;;9.90;99.90;;;;;;10463480;28;20507;-62
2024/02/18 20:05:16;;;;;;;2.17;1.40;;;10.10;99.90;;;;;;10459090;28;20139;-61
2024/02/18 20:10:20;;;;;;;0.40;0.40;;;9.70;99.90;;;;;;10459029;28;20052;-60
2024/02/18 20:15:22;;;;;;;0.10;0.10;;;9.50;99.90;;;;;;10454845;28;20053;-61
2024/02/18 20:20:24;;;;;;;1.13;1.13;;;9.20;99.90;;;;;;10461856;28;20557;-61
2024/02/18 20:25:29;;;;;;;0.40;0.40;;;9.30;99.90;;;;;;10464642;28;20080;-61
2024/02/18 20:30:31;;;;;;;0.10;0.10;;;9.10;99.90;;;;;;10464391;28;20691;-60
2024/02/18 20:35:33;;;;;;;0.40;0.40;;;9.30;99.90;;;;;;10465120;28;20535;-60
2024/02/18 20:40:36;;;;;;;0.10;0.10;;;9.60;99.90;;;;;;10452326;28;20045;-61
2024/02/18 20:45:39;;;;;;;0.08;0.08;;;9.80;99.90;;;;;;10460113;28;20080;-60
2024/02/18 20:50:41;;;;;;;0.77;0.77;;;9.80;99.90;;;;;;10465042;28;20126;-61
2024/02/18 20:55:44;;;;;;;0.73;0.73;;;9.80;99.90;;;;;;10461815;28;20090;-61
2024/02/18 21:00:46;;;;;;;3.40;1.88;;;10.00;99.90;;;;;;10469676;28;20720;-61
2024/02/18 21:05:48;;;;;;;0.10;0.10;;;9.60;99.90;;;;;;10472341;28;20847;-61
2024/02/18 21:10:52;;;;;;;0.77;0.73;;;10.10;99.90;;;;;;10473871;28;20059;-61
2024/02/18 21:15:54;;;;;;;0.30;0.30;;;10.00;99.90;;;;;;10467122;28;20060;-61
2024/02/18 21:20:56;;;;;;;0.20;0.20;;;10.40;99.90;;;;;;10479913;28;20159;-62
2024/02/18 21:25:59;;;;;;;0.20;0.20;;;10.10;99.90;;;;;;10468040;28;20087;-60
2024/02/18 21:31:01;;;;;;;;;;;10.20;99.90;;;;;;10476401;28;20135;-61
2024/02/18 21:36:04;;;;;;;2.33;1.27;;;9.90;99.90;;;;;;10476727;28;20519;-60
2024/02/18 21:41:07;;;;;;;0.63;0.63;;;9.60;99.90;;;;;;10472497;28;20863;-62
2024/02/18 21:46:11;;;;;;;0.30;0.30;;;9.70;99.90;;;;;;10466628;28;20052;-62
2024/02/18 21:51:13;;;;;;;5.15;3.10;;;9.80;99.90;;;;;;10479950;28;20861;-61
2024/02/18 21:56:17;;;;;;;0.63;0.63;;;9.90;99.90;;;;;;10474241;28;20052;-61
2024/02/18 22:01:20;;;;;;;15.93;1.55;;;9.90;99.90;;;;;;10469350;28;20048;-61
2024/02/18 22:06:21;;;;;;;1.67;1.17;;;9.90;99.90;;;;;;10470965;28;20048;-61
2024/02/18 22:11:25;;;;;;;0.50;0.50;;;9.50;99.90;;;;;;10472753;28;20530;-60
2024/02/18 22:16:27;;;;;;;2.47;1.00;;;9.80;99.90;;;;;;10465941;28;20192;-61
2024/02/18 22:21:29;;;;;;;0.10;0.10;;;10.40;99.90;;;;;;10480134;28;20048;-61
2024/02/18 22:26:38;;;;;;;8.43;3.90;;;10.20;99.90;;;;;;10476086;28;20059;-61
2024/02/18 22:31:40;;;;;;;0.10;0.10;;;10.10;99.90;;;;;;10469177;28;20822;-61
2024/02/18 22:36:43;;;;;;;0.20;0.20;;;10.10;99.90;;;;;;10476729;28;20048;-61
2024/02/18 22:41:47;;;;;;;0.10;0.10;;;9.70;99.90;;;;;;10477230;28;20508;-62
2024/02/18 22:46:49;;;;;;;0.20;0.20;;;10.40;99.90;;;;;;10461769;28;20728;-62
2024/02/18 22:51:52;;;;;;;0.28;0.28;;;10.90;99.90;;;;;;10481695;28;20063;-61
2024/02/18 22:56:55;;;;;;;0.40;0.40;;;10.50;99.90;;;;;;10475964;28;20123;-60
2024/02/18 23:01:58;;;;;;;0.25;0.25;;;10.70;99.90;;;;;;10479538;28;20823;-60
2024/02/18 23:07:03;;;;;;;0.10;0.10;;;9.70;99.90;;;;;;10488160;28;20047;-61
2024/02/18 23:12:10;;;;;;;0.10;0.10;;;9.70;99.90;;;;;;10479412;28;20578;-61
2024/02/18 23:17:12;;;;;;;0.10;0.10;;;10.10;99.90;;;;;;10475223;28;20110;-62
2024/02/18 23:22:14;;;;;;;1.45;1.27;;;9.60;99.90;;;;;;10478004;28;20970;-61
2024/02/18 23:27:17;;;;;;;0.15;0.15;;;9.80;99.90;;;;;;10472074;28;20047;-61
2024/02/18 23:32:20;;;;;;;1.63;1.52;;;9.70;99.90;;;;;;10477238;28;20048;-61
2024/02/18 23:37:22;;;;;;;0.70;0.70;;;10.30;99.90;;;;;;10475139;28;20084;-60
2024/02/18 23:42:25;;;;;;;0.88;0.88;;;10.20;99.90;;;;;;10477029;28;20511;-60
2024/02/18 23:47:28;;;;;;;0.38;0.38;;;10.40;99.90;;;;;;10477982;28;20040;-61
2024/02/18 23:52:30;;;;;;;0.52;0.52;;;10.50;99.90;;;;;;10478310;28;20496;-61
2024/02/18 23:57:34;;;;;;;0.20;0.20;;;10.10;99.90;;;;;;10476088;28;20060;-61
